Time;durP1;ratioP1;P1;durP2;ratioP2;P2;SDS_P1;SDS_P2;PMS_P1;PMS_P2;Temp;Humidity;BMP_temperature;BMP_pressure;BME280_temperature;BME280_humidity;BME280_pressure;Samples;Min_cycle;Max_cycle;Signal;HPM_P1;HPM_P2
2022/06/26 00:01:01;;;;;;;4.43;2.65;;;;;;;14.55;83.83;95862.19;2025597;29;20101;-64
2022/06/26 00:02:02;;;;;;;3.10;2.40;;;;;;;14.53;84.39;95864.06;2026153;29;20041;-63
2022/06/26 00:03:04;;;;;;;5.00;2.78;;;;;;;14.49;84.97;95867.78;2018718;29;20060;-63
2022/06/26 00:04:05;;;;;;;5.35;2.50;;;;;;;14.47;84.50;95861.81;2010646;29;20045;-63
2022/06/26 00:05:07;;;;;;;3.70;2.42;;;;;;;14.47;84.59;95852.19;2023532;29;20056;-65
2022/06/26 00:06:08;;;;;;;4.38;2.47;;;;;;;14.56;84.32;95856.00;2018069;29;20056;-64
2022/06/26 00:07:09;;;;;;;3.35;2.35;;;;;;;14.59;84.13;95858.41;2010407;29;20053;-63
2022/06/26 00:08:10;;;;;;;3.67;2.50;;;;;;;14.54;84.24;95858.75;2017464;29;20464;-64
2022/06/26 00:09:12;;;;;;;4.25;2.75;;;;;;;14.54;84.18;95857.88;2016146;29;20052;-64
2022/06/26 00:10:14;;;;;;;4.10;2.45;;;;;;;14.50;84.07;95846.78;2018036;29;20045;-64
2022/06/26 00:11:15;;;;;;;5.28;2.75;;;;;;;14.49;84.19;95857.34;2023745;29;20079;-64
2022/06/26 00:12:16;;;;;;;3.85;2.35;;;;;;;14.47;84.17;95848.75;2026082;29;20117;-64
2022/06/26 00:13:17;;;;;;;4.93;2.70;;;;;;;14.44;84.77;95846.34;2026339;29;20057;-64
2022/06/26 00:14:19;;;;;;;3.28;2.25;;;;;;;14.41;84.99;95847.38;2018659;29;20069;-64
2022/06/26 00:15:21;;;;;;;3.50;2.50;;;;;;;14.37;85.16;95845.06;2018639;29;20503;-64
2022/06/26 00:16:22;;;;;;;3.47;2.83;;;;;;;14.30;85.04;95842.84;2017719;29;20060;-64
2022/06/26 00:17:24;;;;;;;3.60;2.80;;;;;;;14.23;85.74;95845.94;2018548;29;20045;-64
2022/06/26 00:18:25;;;;;;;3.92;2.85;;;;;;;14.19;85.94;95842.69;2017948;29;20049;-64
2022/06/26 00:19:26;;;;;;;3.05;2.20;;;;;;;14.19;85.90;95841.84;2018631;29;20048;-65
2022/06/26 00:20:29;;;;;;;3.53;2.28;;;;;;;14.19;85.94;95853.13;2018332;29;20049;-64
2022/06/26 00:21:30;;;;;;;4.28;2.63;;;;;;;14.18;86.22;95846.25;2011008;29;20504;-64
2022/06/26 00:22:33;;;;;;;4.72;2.53;;;;;;;14.17;85.77;95846.34;2018273;29;20068;-65
2022/06/26 00:23:34;;;;;;;4.82;2.50;;;;;;;14.12;86.31;95842.25;2032887;29;20044;-64
2022/06/26 00:24:35;;;;;;;3.15;2.38;;;;;;;14.09;86.59;95847.66;2033740;29;20578;-61
2022/06/26 00:25:37;;;;;;;4.88;2.47;;;;;;;14.03;86.84;95848.06;2025028;29;20403;-62
2022/06/26 00:26:38;;;;;;;3.40;2.55;;;;;;;14.02;86.64;95848.97;2018261;29;20056;-63
2022/06/26 00:27:40;;;;;;;5.15;2.70;;;;;;;14.00;87.09;95848.22;2017967;29;20056;-66
2022/06/26 00:28:41;;;;;;;6.50;2.65;;;;;;;14.02;86.64;95858.59;2026032;29;20067;-63
2022/06/26 00:29:42;;;;;;;4.57;2.38;;;;;;;14.04;86.84;95851.50;2025795;29;20056;-64
2022/06/26 00:30:43;;;;;;;4.97;2.70;;;;;;;14.07;86.68;95859.16;2026688;29;20051;-63
2022/06/26 00:31:45;;;;;;;4.45;2.55;;;;;;;14.05;86.68;95856.63;2025463;29;20052;-65
2022/06/26 00:32:46;;;;;;;3.78;2.58;;;;;;;14.05;86.68;95854.00;2020298;29;20045;-64
2022/06/26 00:33:47;;;;;;;4.10;2.45;;;;;;;14.07;86.60;95853.91;2032032;29;20040;-64
2022/06/26 00:34:48;;;;;;;4.15;2.88;;;;;;;14.07;86.96;95849.53;2033887;29;20044;-64
2022/06/26 00:35:50;;;;;;;7.70;2.70;;;;;;;14.07;86.85;95848.69;2033729;29;20047;-63
2022/06/26 00:36:51;;;;;;;4.93;2.60;;;;;;;14.06;87.05;95855.69;2033532;29;20051;-64
2022/06/26 00:37:52;;;;;;;6.28;2.70;;;;;;;14.07;87.36;95853.91;2025766;29;20044;-63
2022/06/26 00:38:53;;;;;;;4.80;2.60;;;;;;;14.04;87.28;95859.34;2025403;29;20523;-64
2022/06/26 00:39:55;;;;;;;4.60;2.80;;;;;;;14.04;87.46;95856.72;2033899;29;20048;-64
2022/06/26 00:40:56;;;;;;;3.28;2.83;;;;;;;14.02;88.20;95853.38;2017702;29;20053;-64
2022/06/26 00:41:57;;;;;;;6.10;2.60;;;;;;;14.00;88.09;95853.44;2013310;29;20053;-63
2022/06/26 00:42:58;;;;;;;4.82;2.80;;;;;;;13.96;88.68;95862.44;2025706;29;20045;-64
2022/06/26 00:44:00;;;;;;;5.68;3.20;;;;;;;13.93;89.02;95861.78;2025975;29;20053;-64
2022/06/26 00:45:01;;;;;;;6.65;3.33;;;;;;;13.92;89.25;95865.31;2018364;29;20048;-63
2022/06/26 00:46:04;;;;;;;6.70;3.05;;;;;;;13.95;89.28;95868.56;2034124;29;20052;-65
2022/06/26 00:47:05;;;;;;;5.97;2.85;;;;;;;13.94;88.99;95861.69;2025486;29;20044;-65
2022/06/26 00:48:07;;;;;;;3.95;2.53;;;;;;;13.94;89.51;95871.28;2008573;29;20053;-64
2022/06/26 00:49:08;;;;;;;4.28;2.80;;;;;;;13.92;89.64;95870.53;2017972;29;20524;-64
2022/06/26 00:50:09;;;;;;;4.85;3.00;;;;;;;13.92;90.14;95875.75;2010450;29;20054;-63
2022/06/26 00:51:11;;;;;;;4.15;2.90;;;;;;;13.87;90.39;95874.28;2010970;29;20050;-64
2022/06/26 00:52:13;;;;;;;6.78;2.92;;;;;;;13.86;90.31;95869.97;2026059;29;20056;-64
2022/06/26 00:53:14;;;;;;;4.22;3.00;;;;;;;13.84;90.33;95877.06;2025743;29;20060;-63
2022/06/26 00:54:15;;;;;;;6.72;3.00;;;;;;;13.87;90.21;95871.69;2017663;29;20049;-64
2022/06/26 00:55:17;;;;;;;3.88;2.63;;;;;;;13.85;89.70;95873.53;2017876;29;20053;-65
2022/06/26 00:56:19;;;;;;;5.10;3.20;;;;;;;13.89;89.81;95874.19;2025581;29;20556;-65
2022/06/26 00:57:20;;;;;;;5.90;2.70;;;;;;;13.91;89.41;95872.31;2025511;29;20052;-64
2022/06/26 00:58:22;;;;;;;5.03;2.65;;;;;;;13.92;89.49;95875.75;2023498;29;20487;-64
2022/06/26 00:59:24;;;;;;;5.75;2.95;;;;;;;13.95;89.31;95863.34;2025423;29;20518;-65
2022/06/26 01:00:26;;;;;;;4.93;2.80;;;;;;;13.98;89.07;95868.41;2010302;29;20050;-63
2022/06/26 01:01:27;;;;;;;4.70;2.50;;;;;;;14.03;88.84;95870.69;2017449;29;20052;-63
2022/06/26 01:02:28;;;;;;;3.97;2.42;;;;;;;14.04;88.81;95867.19;2017807;29;20049;-64
2022/06/26 01:03:29;;;;;;;2.75;2.30;;;;;;;14.03;88.87;95875.91;2016820;29;20048;-64
2022/06/26 01:04:31;;;;;;;5.10;2.80;;;;;;;13.99;89.19;95871.84;2025194;29;20048;-63
2022/06/26 01:05:32;;;;;;;4.25;2.80;;;;;;;13.98;88.87;95870.16;2027685;29;20049;-64
2022/06/26 01:06:34;;;;;;;4.97;3.10;;;;;;;13.96;89.48;95870.25;2033228;29;20549;-65
2022/06/26 01:07:35;;;;;;;5.72;3.20;;;;;;;13.95;88.93;95868.56;2033542;29;20055;-65
2022/06/26 01:08:37;;;;;;;3.97;2.85;;;;;;;13.94;89.32;95869.50;2024948;29;20538;-62
2022/06/26 01:09:38;;;;;;;3.97;2.75;;;;;;;13.96;89.24;95869.44;2010648;29;20046;-63
2022/06/26 01:10:40;;;;;;;3.60;2.33;;;;;;;13.97;89.05;95876.31;2017874;29;20060;-65
2022/06/26 01:11:42;;;;;;;7.05;2.83;;;;;;;13.99;88.84;95879.69;2025244;29;20055;-64
2022/06/26 01:12:43;;;;;;;5.07;2.88;;;;;;;13.99;88.95;95877.91;2025754;29;20075;-64
2022/06/26 01:13:48;;;;;;;6.18;2.90;;;;;;;13.99;88.97;95875.28;2032465;29;20116;-65
2022/06/26 01:14:50;;;;;;;4.07;2.85;;;;;;;14.06;88.57;95883.56;2033427;29;20130;-66
2022/06/26 01:15:52;;;;;;;4.72;3.10;;;;;;;14.10;88.54;95883.28;2032970;29;20509;-64
2022/06/26 01:16:53;;;;;;;3.70;2.40;;;;;;;14.10;89.08;95882.44;2025983;29;20041;-63
2022/06/26 01:17:55;;;;;;;5.45;2.65;;;;;;;14.17;88.81;95886.34;2026500;29;20052;-64
2022/06/26 01:18:56;;;;;;;4.40;2.97;;;;;;;14.24;89.81;95876.34;2024946;29;20060;-65
2022/06/26 01:19:57;;;;;;;4.65;2.80;;;;;;;14.25;89.66;95878.88;2017518;29;20053;-65
2022/06/26 01:20:59;;;;;;;4.47;3.05;;;;;;;14.26;90.58;95888.38;2016185;29;20053;-64
2022/06/26 01:22:00;;;;;;;4.75;2.90;;;;;;;14.27;90.33;95884.84;2025474;29;20048;-65
2022/06/26 01:23:02;;;;;;;4.35;2.95;;;;;;;14.29;90.32;95885.56;2033701;29;20044;-63
2022/06/26 01:24:04;;;;;;;4.75;2.95;;;;;;;14.41;88.81;95888.34;2033469;29;20056;-63
2022/06/26 01:25:05;;;;;;;3.20;2.72;;;;;;;14.43;88.40;95886.44;2033635;29;20059;-64
2022/06/26 01:26:07;;;;;;;5.32;2.90;;;;;;;14.44;88.11;95893.38;2033960;29;20130;-64
2022/06/26 01:27:09;;;;;;;5.03;2.70;;;;;;;14.46;87.53;95892.34;2025021;29;20438;-64
2022/06/26 01:28:10;;;;;;;5.18;3.00;;;;;;;14.49;87.99;95888.69;2017331;29;20049;-64
2022/06/26 01:29:11;;;;;;;3.75;2.80;;;;;;;14.49;87.87;95892.13;2017316;29;20059;-64
2022/06/26 01:30:13;;;;;;;3.67;2.60;;;;;;;14.50;88.12;95893.81;2024865;29;20519;-64
2022/06/26 01:31:16;;;;;;;6.78;2.97;;;;;;;14.50;87.77;95891.19;2025589;29;20056;-63
2022/06/26 01:32:17;;;;;;;3.88;2.90;;;;;;;14.50;87.31;95895.59;2023048;29;20056;-64
2022/06/26 01:33:18;;;;;;;4.35;2.92;;;;;;;14.49;87.17;95894.75;2033012;29;20060;-64
2022/06/26 01:34:20;;;;;;;4.30;2.95;;;;;;;14.51;87.11;95903.34;2024678;29;20056;-64
2022/06/26 01:35:24;;;;;;;3.80;2.38;;;;;;;14.54;87.23;95903.16;2019814;29;20067;-64
2022/06/26 01:36:33;;;;;;;5.43;2.63;;;;;;;14.61;87.22;95903.59;2031409;29;20054;-65
2022/06/26 01:37:35;;;;;;;4.00;2.90;;;;;;;14.63;87.12;95903.50;2016103;29;20049;-62
2022/06/26 01:38:36;;;;;;;4.65;2.85;;;;;;;14.64;86.91;95899.94;2025025;29;20048;-64
2022/06/26 01:39:38;;;;;;;4.18;2.67;;;;;;;14.70;86.82;95902.16;2025327;29;20522;-64
2022/06/26 01:40:39;;;;;;;4.70;2.80;;;;;;;14.72;86.83;95901.13;2025497;29;20052;-64
2022/06/26 01:41:42;;;;;;;4.20;2.83;;;;;;;14.72;86.67;95905.50;2032739;29;20036;-65
2022/06/26 01:42:45;;;;;;;4.00;2.58;;;;;;;14.71;87.02;95901.22;2018992;29;20048;-65
2022/06/26 01:43:47;;;;;;;4.60;2.97;;;;;;;14.72;86.54;95903.72;2025468;29;20052;-64
2022/06/26 01:44:49;;;;;;;4.68;2.70;;;;;;;14.77;85.93;95904.28;2025021;29;20044;-64
2022/06/26 01:45:51;;;;;;;5.70;2.90;;;;;;;14.80;85.94;95903.22;2025252;29;20052;-64
2022/06/26 01:46:54;;;;;;;9.15;2.92;;;;;;;14.81;85.84;95907.53;2032763;29;20055;-64
2022/06/26 01:47:55;;;;;;;6.75;2.80;;;;;;;14.83;85.62;95904.81;2033435;29;20044;-64
2022/06/26 01:48:58;;;;;;;4.95;2.65;;;;;;;14.88;85.37;95910.56;2032909;29;20449;-65
2022/06/26 01:50:00;;;;;;;5.28;2.58;;;;;;;14.89;85.47;95902.66;2025063;29;20052;-64
2022/06/26 01:51:01;;;;;;;3.67;2.35;;;;;;;14.89;85.36;95904.41;2024708;29;20079;-64
2022/06/26 01:52:03;;;;;;;4.35;2.65;;;;;;;14.93;85.25;95903.28;2025097;29;20127;-64
2022/06/26 01:53:05;;;;;;;2.90;2.28;;;;;;;14.95;85.49;95904.00;2017595;29;20057;-63
2022/06/26 01:54:06;;;;;;;3.65;2.30;;;;;;;14.96;84.82;95905.69;2024939;29;20076;-64
2022/06/26 01:55:09;;;;;;;4.13;2.40;;;;;;;14.93;84.76;95903.28;2017761;29;20175;-64
2022/06/26 01:56:11;;;;;;;4.28;2.70;;;;;;;14.91;84.13;95905.13;2017845;29;20044;-65
2022/06/26 01:57:15;;;;;;;6.00;2.53;;;;;;;14.88;85.92;95907.97;2032444;29;20052;-63
2022/06/26 01:58:19;;;;;;;4.25;2.60;;;;;;;14.81;85.38;95906.69;2017288;29;20048;-64
2022/06/26 01:59:21;;;;;;;6.30;2.95;;;;;;;14.79;85.28;95912.03;2014609;29;20100;-65
2022/06/26 02:00:23;;;;;;;6.13;2.85;;;;;;;14.76;85.82;95913.06;2024946;29;20056;-63
2022/06/26 02:01:24;;;;;;;4.18;2.67;;;;;;;14.78;85.59;95913.81;2017375;29;20053;-64
2022/06/26 02:02:26;;;;;;;4.97;2.95;;;;;;;14.79;85.67;95919.88;2025261;29;20053;-66
2022/06/26 02:03:27;;;;;;;4.72;2.60;;;;;;;14.77;85.98;95922.56;2033302;29;20048;-64
2022/06/26 02:04:28;;;;;;;4.88;2.75;;;;;;;14.81;86.25;95915.38;2024806;29;20557;-65
2022/06/26 02:05:31;;;;;;;5.32;2.80;;;;;;;14.84;86.25;95922.19;2033112;29;20442;-64
2022/06/26 02:06:34;;;;;;;3.22;2.45;;;;;;;14.83;86.01;95921.31;2032715;29;20052;-65
2022/06/26 02:07:35;;;;;;;4.70;2.42;;;;;;;14.86;86.01;95917.69;2032788;29;20059;-64
2022/06/26 02:08:37;;;;;;;4.47;2.30;;;;;;;14.87;85.95;95912.34;2024404;29;20059;-64
2022/06/26 02:13:44;;;;;;;4.63;2.38;;;;;;;14.84;86.68;95914.34;2019980;29;20055;-64
2022/06/26 02:14:46;;;;;;;4.85;2.80;;;;;;;14.81;87.20;95909.28;2025063;29;20514;-65
2022/06/26 02:15:47;;;;;;;5.07;2.50;;;;;;;14.82;86.79;95911.81;2032849;29;20063;-64
2022/06/26 02:16:51;;;;;;;3.30;2.60;;;;;;;14.83;86.60;95912.66;2025036;29;20056;-65
2022/06/26 02:17:52;;;;;;;5.10;2.50;;;;;;;14.82;86.40;95911.00;2024755;29;20052;-62
2022/06/26 02:18:56;;;;;;;3.88;2.63;;;;;;;14.74;87.25;95914.09;2017158;29;20048;-64
2022/06/26 02:19:58;;;;;;;4.60;2.35;;;;;;;14.74;86.92;95914.94;2025687;29;20049;-64
2022/06/26 02:20:59;;;;;;;5.10;2.47;;;;;;;14.76;86.79;95915.69;2024278;29;20069;-65
2022/06/26 02:22:01;;;;;;;5.10;2.42;;;;;;;14.85;86.67;95913.41;2017685;29;20052;-65
2022/06/26 02:23:02;;;;;;;3.20;2.38;;;;;;;14.86;87.04;95910.69;2024849;29;20055;-64
2022/06/26 02:24:04;;;;;;;4.32;2.55;;;;;;;14.86;86.75;95912.44;2022493;29;20048;-61
2022/06/26 02:25:08;;;;;;;3.67;2.10;;;;;;;14.91;86.28;95913.81;2024734;29;20056;-64
2022/06/26 02:26:10;;;;;;;5.40;2.55;;;;;;;14.98;86.01;95906.41;2029428;29;20553;-65
2022/06/26 02:27:12;;;;;;;4.35;2.78;;;;;;;15.00;86.30;95912.41;2032140;29;20056;-64
2022/06/26 02:28:16;;;;;;;5.22;2.90;;;;;;;15.00;86.23;95918.47;2025347;29;20060;-64
2022/06/26 02:29:17;;;;;;;4.53;2.40;;;;;;;15.02;86.22;95915.72;2017351;29;20056;-66
2022/06/26 02:30:18;;;;;;;4.65;2.22;;;;;;;15.01;86.25;95919.28;2024899;29;20522;-65
2022/06/26 02:31:20;;;;;;;4.32;2.30;;;;;;;15.02;85.88;95918.34;2016762;29;20519;-64
2022/06/26 02:32:23;;;;;;;4.45;2.80;;;;;;;15.03;85.88;95913.97;2011382;29;20542;-66
2022/06/26 02:33:24;;;;;;;4.25;2.63;;;;;;;15.00;85.64;95915.00;2025051;29;20195;-64
2022/06/26 02:34:26;;;;;;;4.35;2.55;;;;;;;14.99;86.67;95916.78;2032721;29;20055;-65
2022/06/26 02:35:27;;;;;;;4.93;2.10;;;;;;;15.00;86.77;95917.63;2032481;29;20052;-63
2022/06/26 02:36:29;;;;;;;3.80;2.53;;;;;;;14.95;86.62;95917.91;2032619;29;20059;-64
2022/06/26 02:37:30;;;;;;;5.70;2.50;;;;;;;14.96;86.92;95921.38;2025030;29;20056;-65
2022/06/26 02:38:32;;;;;;;6.05;2.88;;;;;;;14.93;86.49;95917.19;2017552;29;20053;-66
2022/06/26 02:39:35;;;;;;;5.05;2.30;;;;;;;14.92;86.25;95919.91;2016681;29;20048;-64
2022/06/26 02:40:36;;;;;;;5.85;2.53;;;;;;;14.87;86.10;95917.59;2017764;29;20044;-64
2022/06/26 02:41:37;;;;;;;3.50;2.05;;;;;;;14.88;86.77;95929.72;2031354;29;20505;-64
2022/06/26 02:42:38;;;;;;;4.65;2.17;;;;;;;14.83;87.20;95928.34;2033292;29;20051;-63
2022/06/26 02:43:40;;;;;;;6.20;2.50;;;;;;;14.81;87.88;95930.22;2033452;29;20560;-65
2022/06/26 02:44:43;;;;;;;3.50;2.35;;;;;;;14.75;88.10;95927.09;2032886;29;20052;-64
2022/06/26 02:45:45;;;;;;;5.63;2.80;;;;;;;14.74;88.83;95935.00;2025020;29;20430;-64
2022/06/26 02:46:46;;;;;;;3.05;2.20;;;;;;;14.74;87.97;95937.63;2024822;29;20055;-65
2022/06/26 02:47:48;;;;;;;5.20;2.67;;;;;;;14.74;88.39;95938.44;2024621;29;20044;-64
2022/06/26 02:48:50;;;;;;;3.28;2.65;;;;;;;14.85;87.69;95939.53;2024640;29;20055;-65
2022/06/26 02:49:52;;;;;;;7.75;2.72;;;;;;;14.76;87.83;95939.19;2032692;29;20048;-66
2022/06/26 02:50:56;;;;;;;4.15;2.38;;;;;;;14.73;87.92;95935.97;2016645;29;20064;-64
2022/06/26 02:51:58;;;;;;;3.47;2.60;;;;;;;14.69;87.73;95937.91;2049010;23;20058;-57
2022/06/26 02:53:01;;;;;;;3.88;2.40;;;;;;;14.66;88.22;95943.34;2055912;28;20058;-58
2022/06/26 02:54:03;;;;;;;5.00;2.47;;;;;;;14.64;87.67;95939.16;2039957;29;20056;-57
2022/06/26 02:55:05;;;;;;;3.75;2.45;;;;;;;14.67;87.79;95934.53;2032531;29;20051;-58
2022/06/26 02:56:10;;;;;;;4.68;2.65;;;;;;;14.66;87.32;95935.50;2033068;29;20515;-58
2022/06/26 02:57:11;;;;;;;4.63;2.70;;;;;;;14.65;87.42;95930.34;2048061;28;20793;-57
2022/06/26 02:58:12;;;;;;;5.43;2.50;;;;;;;14.63;87.64;95930.47;2047877;28;20054;-58
2022/06/26 02:59:20;;;;;;;4.20;2.50;;;;;;;14.57;86.89;95933.50;2049523;28;20051;-58
2022/06/26 03:00:22;;;;;;;6.35;2.70;;;;;;;14.51;87.77;95928.59;2040006;29;20290;-58
2022/06/26 03:01:23;;;;;;;3.97;2.83;;;;;;;14.50;87.65;95930.38;2048727;28;20066;-58
2022/06/26 03:02:28;;;;;;;3.92;2.72;;;;;;;14.38;88.92;95928.56;2040050;29;20391;-58
2022/06/26 03:03:37;;;;;;;4.05;2.78;;;;;;;14.28;89.19;95925.69;2049052;28;20058;-57
2022/06/26 03:04:38;;;;;;;3.83;2.60;;;;;;;14.24;89.35;95932.03;2035751;29;20051;-57
2022/06/26 03:05:39;;;;;;;3.70;2.75;;;;;;;14.22;89.66;95930.44;2031260;29;20047;-57
2022/06/26 03:06:40;;;;;;;6.20;2.58;;;;;;;14.28;89.22;95930.06;2040090;29;20086;-57
2022/06/26 03:07:42;;;;;;;5.68;2.58;;;;;;;14.33;88.46;95935.84;2032682;29;20052;-57
2022/06/26 03:08:44;;;;;;;6.68;2.97;;;;;;;14.33;88.82;95936.69;2039743;29;20055;-58
2022/06/26 03:09:47;;;;;;;6.40;3.05;;;;;;;14.30;88.23;95934.28;2040030;29;20047;-57
2022/06/26 03:10:50;;;;;;;4.80;2.97;;;;;;;14.27;89.07;95929.25;2040072;29;20048;-57
2022/06/26 03:11:51;;;;;;;3.50;2.50;;;;;;;14.27;88.75;95936.22;2057861;28;20053;-58
2022/06/26 03:12:52;;;;;;;5.07;2.85;;;;;;;14.25;89.35;95940.72;2047712;29;20058;-58
2022/06/26 03:13:54;;;;;;;5.55;2.90;;;;;;;14.25;88.97;95938.94;2039995;29;20055;-58
2022/06/26 03:14:55;;;;;;;3.58;2.88;;;;;;;14.21;89.29;95942.66;2032681;29;20052;-58
2022/06/26 03:15:57;;;;;;;3.30;2.55;;;;;;;14.20;89.13;95943.63;2032648;29;20055;-57
2022/06/26 03:16:58;;;;;;;5.60;3.05;;;;;;;14.13;89.46;95944.91;2032389;29;20075;-58
2022/06/26 03:18:02;;;;;;;3.85;2.70;;;;;;;14.09;89.89;95948.66;2032899;29;20055;-57
2022/06/26 03:19:04;;;;;;;4.30;2.80;;;;;;;14.06;90.75;95954.06;2040194;29;20051;-57
2022/06/26 03:20:08;;;;;;;5.40;2.88;;;;;;;14.10;90.60;95945.94;2047948;28;20432;-58
2022/06/26 03:21:09;;;;;;;4.38;2.75;;;;;;;14.17;90.80;95956.88;2047828;29;20066;-57
2022/06/26 03:22:10;;;;;;;5.22;3.40;;;;;;;14.20;91.07;95956.66;2047821;28;20054;-56
2022/06/26 03:23:12;;;;;;;4.00;3.00;;;;;;;14.17;91.45;95961.25;2040192;29;20119;-57
2022/06/26 03:24:13;;;;;;;5.03;3.03;;;;;;;14.14;90.80;95957.06;2032272;29;20063;-58
2022/06/26 03:25:14;;;;;;;5.22;3.17;;;;;;;14.17;89.88;95962.09;2039696;28;20051;-57
2022/06/26 03:26:16;;;;;;;5.68;3.00;;;;;;;14.18;89.35;95955.91;2047922;29;20525;-57
2022/06/26 03:27:17;;;;;;;4.47;3.10;;;;;;;14.20;89.32;95964.50;2047676;28;20047;-58
2022/06/26 03:28:19;;;;;;;5.53;3.08;;;;;;;14.18;89.19;95958.53;2046504;29;20555;-58
2022/06/26 03:29:20;;;;;;;6.85;2.80;;;;;;;13.87;89.06;95923.88;2047022;29;20058;-57
2022/06/26 03:30:21;;;;;;;4.80;2.88;;;;;;;14.05;88.74;95955.84;2047451;29;20044;-57
2022/06/26 03:31:26;;;;;;;5.68;3.00;;;;;;;13.99;89.77;95966.66;2025176;29;20048;-56
2022/06/26 03:32:27;;;;;;;6.53;2.92;;;;;;;13.97;90.14;95968.53;2018231;29;20455;-58
2022/06/26 03:33:38;;;;;;;4.28;2.75;;;;;;;13.98;89.69;95962.38;2033711;29;20044;-58
2022/06/26 03:34:39;;;;;;;9.52;2.60;;;;;;;13.97;89.59;95959.84;2034280;29;20044;-57
2022/06/26 03:35:40;;;;;;;6.97;3.15;;;;;;;14.02;89.52;95963.84;2032183;29;20581;-57
2022/06/26 03:36:41;;;;;;;7.40;2.90;;;;;;;14.02;89.63;95963.03;2039399;29;20546;-57
2022/06/26 03:37:43;;;;;;;6.57;2.90;;;;;;;14.01;90.11;95961.38;2039861;29;20074;-57
2022/06/26 03:38:44;;;;;;;4.03;2.75;;;;;;;13.96;90.07;95966.03;2039685;29;20050;-58
2022/06/26 03:39:46;;;;;;;7.70;3.15;;;;;;;13.92;89.80;95961.91;2032293;29;20048;-57
2022/06/26 03:40:49;;;;;;;6.57;3.53;;;;;;;13.92;89.90;95967.97;2017724;29;20177;-58
2022/06/26 03:42:00;;;;;;;5.60;2.63;;;;;;;13.93;89.68;95961.81;2041932;28;20059;-57
2022/06/26 03:43:04;;;;;;;7.43;3.05;;;;;;;13.93;89.15;95964.44;2040320;29;20493;-58
2022/06/26 03:44:20;;;;;;;4.45;2.88;;;;;;;13.96;89.53;95973.84;2033526;29;20055;-56
2022/06/26 03:45:23;;;;;;;6.15;3.13;;;;;;;13.88;89.63;95967.31;2032592;29;20752;-57
2022/06/26 03:46:24;;;;;;;5.95;2.80;;;;;;;13.82;89.58;95970.31;2046831;28;20054;-57
2022/06/26 03:47:26;;;;;;;6.97;2.92;;;;;;;13.81;89.74;95971.22;2039834;29;20059;-58
2022/06/26 03:48:29;;;;;;;3.53;2.85;;;;;;;13.80;89.65;95964.34;2039973;29;20051;-57
2022/06/26 03:49:30;;;;;;;4.82;2.88;;;;;;;13.80;89.93;95966.13;2047704;29;20062;-58
2022/06/26 03:50:35;;;;;;;5.95;2.97;;;;;;;13.90;89.22;95967.25;2031949;29;20059;-58
2022/06/26 03:51:37;;;;;;;6.55;3.15;;;;;;;13.88;89.58;95975.16;2047663;28;20047;-57
2022/06/26 03:52:40;;;;;;;5.53;2.92;;;;;;;13.87;89.79;95970.00;2039804;29;20414;-57
2022/06/26 03:53:44;;;;;;;3.58;2.90;;;;;;;13.80;90.09;95976.56;2041429;29;20509;-57
2022/06/26 03:54:50;;;;;;;5.43;3.00;;;;;;;13.90;89.19;95972.47;2026964;29;20055;-57
2022/06/26 03:55:55;;;;;;;8.10;3.05;;;;;;;13.95;89.05;95970.38;2027689;29;20056;-58
2022/06/26 03:56:57;;;;;;;5.43;3.22;;;;;;;14.03;88.59;95969.91;2041934;29;20051;-58
2022/06/26 03:58:03;;;;;;;3.85;2.72;;;;;;;14.01;88.71;95975.25;2049104;29;20058;-57
2022/06/26 03:59:06;;;;;;;4.82;2.80;;;;;;;14.01;88.67;95969.19;2041137;29;20044;-58
2022/06/26 04:00:11;;;;;;;8.45;3.38;;;;;;;14.01;88.37;95974.41;2041008;28;20056;-58
2022/06/26 04:01:19;;;;;;;9.63;3.42;;;;;;;13.93;89.23;95979.28;2041516;29;20036;-58
2022/06/26 04:02:26;;;;;;;4.65;3.30;;;;;;;13.86;89.68;95979.63;2041614;29;20059;-58
2022/06/26 04:03:27;;;;;;;6.65;3.15;;;;;;;13.86;89.71;95971.78;2049283;28;20082;-58
2022/06/26 04:04:28;;;;;;;5.53;3.45;;;;;;;13.92;89.31;95981.00;2049228;29;20051;-57
2022/06/26 04:05:30;;;;;;;3.88;3.20;;;;;;;13.97;88.96;95976.34;2033315;29;20043;-58
2022/06/26 04:06:32;;;;;;;5.90;3.42;;;;;;;14.06;88.87;95988.00;2041384;29;20509;-57
2022/06/26 04:07:41;;;;;;;5.72;3.03;;;;;;;14.08;88.79;95980.91;2050695;28;20539;-58
2022/06/26 04:08:54;;;;;;;7.80;3.45;;;;;;;14.10;88.96;95984.28;2053271;28;20047;-58
2022/06/26 04:09:55;;;;;;;5.45;3.00;;;;;;;14.19;88.42;95980.25;2041040;29;20048;-57
2022/06/26 04:10:57;;;;;;;7.30;3.30;;;;;;;14.24;88.39;95979.03;2033243;29;20534;-58
2022/06/26 04:12:14;;;;;;;7.65;3.63;;;;;;;14.25;88.57;95972.91;2044892;28;20058;-58
2022/06/26 04:13:17;;;;;;;7.53;3.10;;;;;;;14.24;88.38;95978.19;2046633;29;20058;-58
2022/06/26 04:14:18;;;;;;;9.57;3.28;;;;;;;14.21;88.37;95979.22;2041679;29;20051;-58
2022/06/26 04:15:20;;;;;;;7.75;3.30;;;;;;;14.20;88.62;95977.56;2046583;29;20043;-57
2022/06/26 04:16:21;;;;;;;5.47;3.25;;;;;;;14.17;88.99;95975.16;2041193;29;20055;-58
2022/06/26 04:17:24;;;;;;;7.03;3.33;;;;;;;14.15;89.25;95979.63;2037491;29;20075;-58
2022/06/26 04:18:31;;;;;;;4.72;3.38;;;;;;;14.13;89.27;95982.31;2034910;29;20055;-57
2022/06/26 04:19:33;;;;;;;9.68;3.97;;;;;;;14.17;89.19;95971.69;2041161;29;20055;-57
2022/06/26 04:20:34;;;;;;;11.55;4.47;;;;;;;14.26;88.38;95976.34;2033839;29;20044;-58
2022/06/26 04:21:37;;;;;;;6.50;4.00;;;;;;;14.27;88.21;95975.41;2041499;28;20055;-58
2022/06/26 04:22:42;;;;;;;5.53;4.00;;;;;;;14.25;88.57;95969.44;2041093;29;20039;-58
2022/06/26 04:23:47;;;;;;;5.75;4.07;;;;;;;14.24;88.04;95965.97;2027410;29;20060;-58
2022/06/26 04:24:53;;;;;;;9.15;3.80;;;;;;;14.25;88.63;95972.91;2018583;29;20439;-58
2022/06/26 04:25:55;;;;;;;5.13;3.60;;;;;;;14.24;88.68;95973.81;2026146;29;20507;-58
2022/06/26 04:26:58;;;;;;;7.65;4.35;;;;;;;14.24;88.78;95968.59;2041546;29;20051;-58
2022/06/26 04:28:01;;;;;;;6.82;3.83;;;;;;;14.22;88.35;95969.63;2048613;29;20063;-57
2022/06/26 04:29:07;;;;;;;7.35;3.97;;;;;;;14.21;88.72;95963.56;2041330;29;20047;-57
2022/06/26 04:30:12;;;;;;;6.13;3.67;;;;;;;14.24;88.72;95968.59;2034957;29;20048;-58
2022/06/26 04:31:16;;;;;;;7.90;3.90;;;;;;;14.25;88.56;95972.06;2046610;28;20046;-57
2022/06/26 04:32:23;;;;;;;8.02;3.78;;;;;;;14.26;88.53;95961.50;2043487;28;20055;-59
2022/06/26 04:33:26;;;;;;;9.30;3.65;;;;;;;14.27;88.75;95957.13;2056492;28;20057;-58
2022/06/26 04:34:27;;;;;;;7.15;4.20;;;;;;;14.31;88.52;95961.22;2048656;29;20052;-58
2022/06/26 04:35:29;;;;;;;7.78;4.07;;;;;;;14.30;88.15;95952.56;2049693;28;20047;-58
2022/06/26 04:36:31;;;;;;;4.80;3.75;;;;;;;14.31;88.20;95958.63;2048571;29;20058;-57
2022/06/26 04:37:33;;;;;;;6.78;3.80;;;;;;;14.32;87.78;95957.66;2033204;29;20126;-58
2022/06/26 04:38:34;;;;;;;5.45;3.70;;;;;;;14.33;87.95;95959.38;2040748;29;20051;-58
2022/06/26 04:39:36;;;;;;;6.38;3.60;;;;;;;14.33;87.37;95957.59;2040973;29;20039;-57
2022/06/26 04:40:39;;;;;;;4.85;3.20;;;;;;;14.29;88.05;95958.69;2045363;28;20058;-58
2022/06/26 04:42:42;;;;;;;5.32;3.38;;;;;;;14.36;87.77;95967.00;2040950;29;20048;-58
2022/06/26 04:43:43;;;;;;;5.90;3.25;;;;;;;14.38;87.86;95972.13;2048612;29;20599;-57
2022/06/26 04:44:44;;;;;;;5.95;3.17;;;;;;;14.40;87.54;95967.63;2033588;29;20048;-57
2022/06/26 04:45:46;;;;;;;6.22;3.50;;;;;;;14.36;87.86;95966.16;2041789;28;20046;-58
2022/06/26 04:46:48;;;;;;;5.78;3.67;;;;;;;14.32;88.23;95965.50;2056163;28;20523;-58
2022/06/26 04:47:49;;;;;;;4.95;3.10;;;;;;;14.29;88.32;95961.31;2048794;29;20110;-58
2022/06/26 04:48:52;;;;;;;5.15;3.05;;;;;;;14.28;88.13;95966.66;2048293;28;20551;-56
2022/06/26 04:49:55;;;;;;;6.57;3.72;;;;;;;14.28;88.15;95969.25;2048966;28;20059;-58
2022/06/26 04:50:57;;;;;;;5.05;3.50;;;;;;;14.21;88.74;95963.56;2048706;29;20051;-58
2022/06/26 04:51:58;;;;;;;5.88;3.35;;;;;;;14.23;89.07;95968.69;2033194;29;20074;-57
2022/06/26 04:53:05;;;;;;;5.13;3.38;;;;;;;14.22;88.85;95972.22;2027082;29;20049;-58
2022/06/26 04:54:08;;;;;;;7.13;3.72;;;;;;;14.22;88.54;95970.47;2034208;29;20051;-58
2022/06/26 04:55:11;;;;;;;5.18;3.63;;;;;;;14.21;88.22;95968.78;2040779;29;20044;-58
2022/06/26 04:56:15;;;;;;;5.15;3.60;;;;;;;14.22;88.26;95964.41;2040497;29;20067;-57
2022/06/26 04:57:25;;;;;;;4.85;3.83;;;;;;;14.31;88.01;95969.91;2040704;29;20047;-58
2022/06/26 04:58:27;;;;;;;6.22;3.67;;;;;;;14.33;88.38;95970.66;2033394;29;20048;-57
2022/06/26 04:59:30;;;;;;;6.75;3.80;;;;;;;14.39;87.87;95971.19;2026334;29;20048;-58